createdAt,value
2023-04-18T00:00:10.807Z,99009.81
2023-04-18T00:02:39.861Z,99011.50
2023-04-18T00:05:08.329Z,99014.16
2023-04-18T00:07:35.695Z,99015.88
2023-04-18T00:10:04.045Z,99013.94
2023-04-18T00:12:34.331Z,99019.03
2023-04-18T00:15:02.370Z,99016.81
2023-04-18T00:17:30.494Z,99017.97
2023-04-18T00:19:58.422Z,99012.66
2023-04-18T00:22:25.643Z,99016.91
2023-04-18T00:24:52.812Z,99014.69
2023-04-18T00:27:20.576Z,99019.72
2023-04-18T00:29:48.258Z,99027.22
2023-04-18T00:32:16.726Z,99020.47
2023-04-18T00:34:44.203Z,99022.16
2023-04-18T00:37:12.815Z,99021.62
2023-04-18T00:39:42.234Z,99020.88
2023-04-18T00:42:09.783Z,99016.09
2023-04-18T00:44:37.119Z,99023.84
2023-04-18T00:47:04.276Z,99013.25
2023-04-18T00:49:32.625Z,99017.25
2023-04-18T00:52:00.440Z,99018.75
2023-04-18T00:54:28.356Z,99022.56
2023-04-18T00:56:56.227Z,99023.97
2023-04-18T00:59:23.531Z,99023.13
2023-04-18T01:01:50.667Z,99026.69
2023-04-18T01:04:18.169Z,99025.41
2023-04-18T01:06:45.653Z,99023.59
2023-04-18T01:09:13.994Z,99021.78
2023-04-18T01:11:41.431Z,99025.06
2023-04-18T01:14:09.421Z,99026.56
2023-04-18T01:16:40.073Z,99024.87
2023-04-18T01:19:07.568Z,99017.37
2023-04-18T01:21:37.211Z,99017.34
2023-04-18T01:24:08.546Z,99024.44
2023-04-18T01:26:36.385Z,99019.03
2023-04-18T01:29:05.764Z,99023.28
2023-04-18T01:31:40.191Z,99026.97
2023-04-18T01:34:08.305Z,99030.16
2023-04-18T01:36:36.628Z,99026.56
2023-04-18T01:39:03.983Z,99026.75
2023-04-18T01:41:32.841Z,99029.22
2023-04-18T01:44:00.748Z,99024.03
2023-04-18T01:46:28.818Z,99029.41
2023-04-18T01:48:57.289Z,99027.34
2023-04-18T01:51:24.400Z,99024.44
2023-04-18T01:53:53.664Z,99029.97
2023-04-18T01:56:21.182Z,99026.56
2023-04-18T01:58:48.405Z,99021.78
2023-04-18T02:01:15.599Z,99031.16
2023-04-18T02:03:43.415Z,99032.16
2023-04-18T02:06:13.127Z,99031.16
2023-04-18T02:08:40.531Z,99027.09
2023-04-18T02:11:07.928Z,99031.88
2023-04-18T02:13:35.324Z,99032.72
2023-04-18T02:16:12.674Z,99031.09
2023-04-18T02:18:43.878Z,99033.22
2023-04-18T02:21:11.906Z,99037.94
2023-04-18T02:23:38.965Z,99037.75
2023-04-18T02:26:06.554Z,99035.41
2023-04-18T02:28:34.221Z,99032.56
2023-04-18T02:31:03.516Z,99034.44
2023-04-18T02:33:30.718Z,99036.25
2023-04-18T02:35:58.172Z,99034.63
2023-04-18T02:38:25.277Z,99040.31
2023-04-18T02:40:52.452Z,99039.94
2023-04-18T02:43:20.806Z,99034.63
2023-04-18T02:45:47.892Z,99044.06
2023-04-18T02:48:15.182Z,99044.25
2023-04-18T02:50:43.858Z,99041.16
2023-04-18T02:53:10.954Z,99041.88
2023-04-18T02:55:39.462Z,99044.84
2023-04-18T02:58:06.841Z,99047.97
2023-04-18T03:00:36.840Z,99047.09
2023-04-18T03:03:05.603Z,99056.06
2023-04-18T03:05:33.837Z,99052.19
2023-04-18T03:08:02.101Z,99059.06
2023-04-18T03:10:29.743Z,99061.16
2023-04-18T03:12:57.249Z,99064.19
2023-04-18T03:15:24.837Z,99071.81
2023-04-18T03:17:52.749Z,99062.97
2023-04-18T03:20:21.022Z,99070.09
2023-04-18T03:22:48.232Z,99068.78
2023-04-18T03:25:18.307Z,99063.81
2023-04-18T03:27:45.828Z,99067.69
2023-04-18T03:30:13.472Z,99064.13
2023-04-18T03:32:42.264Z,99063.66
2023-04-18T03:35:09.904Z,99069.06
2023-04-18T03:37:37.227Z,99069.63
2023-04-18T03:40:08.104Z,99069.81
2023-04-18T03:42:36.309Z,99078.97
2023-04-18T03:45:03.695Z,99079.16
2023-04-18T03:47:32.185Z,99080.09
2023-04-18T03:49:59.923Z,99073.09
2023-04-18T03:52:29.215Z,99066.88
2023-04-18T03:54:57.168Z,99062.25
2023-04-18T03:57:24.900Z,99067.62
2023-04-18T03:59:51.992Z,99062.81
2023-04-18T04:02:19.320Z,99066.69
2023-04-18T04:04:47.026Z,99069.44
2023-04-18T04:07:14.343Z,99078.41
2023-04-18T04:09:42.276Z,99074.53
2023-04-18T04:12:09.669Z,99068.69
2023-04-18T04:14:37.237Z,99078.09
2023-04-18T04:17:04.557Z,99076.63
2023-04-18T04:19:32.995Z,99077.53
2023-04-18T04:22:01.430Z,99085.28
2023-04-18T04:24:30.712Z,99087.53
2023-04-18T04:26:58.894Z,99090.31
2023-04-18T04:29:27.014Z,99088.56
2023-04-18T04:31:54.201Z,99088.31
2023-04-18T04:34:21.967Z,99086.87
2023-04-18T04:36:49.150Z,99092.66
2023-04-18T04:39:17.431Z,99088.56
2023-04-18T04:41:47.165Z,99095.09
2023-04-18T04:44:18.557Z,99100.47
2023-04-18T04:46:45.910Z,99106.91
2023-04-18T04:49:14.326Z,99107.56
2023-04-18T04:51:43.012Z,99100.47
2023-04-18T04:54:10.832Z,99098.69
2023-04-18T04:56:38.119Z,99103.13
2023-04-18T04:59:06.007Z,99107.94
2023-04-18T05:01:33.953Z,99104.63
2023-04-18T05:04:01.202Z,99112.19
2023-04-18T05:06:28.671Z,99111.97
2023-04-18T05:08:57.554Z,99112.72
2023-04-18T05:11:24.647Z,99114.34
2023-04-18T05:13:51.988Z,99114.34
2023-04-18T05:16:19.522Z,99116.22
2023-04-18T05:18:47.024Z,99120.28
2023-04-18T05:21:14.128Z,99116.81
2023-04-18T05:23:41.567Z,99127.47
2023-04-18T05:26:08.794Z,99125.19
2023-04-18T05:28:35.911Z,99121.12
2023-04-18T05:31:03.398Z,99129.00
2023-04-18T05:33:31.702Z,99133.59
2023-04-18T05:35:59.216Z,99126.91
2023-04-18T05:38:26.660Z,99128.72
2023-04-18T05:40:55.774Z,99134.88
2023-04-18T05:43:23.432Z,99133.44
2023-04-18T05:45:52.606Z,99137.03
2023-04-18T05:48:20.065Z,99133.06
2023-04-18T05:50:47.185Z,99136.09
2023-04-18T05:53:14.696Z,99132.91
2023-04-18T05:55:41.939Z,99134.75
2023-04-18T05:58:09.100Z,99137.50
2023-04-18T06:00:36.774Z,99137.00
2023-04-18T06:03:04.458Z,99136.50
2023-04-18T06:05:32.064Z,99142.72
2023-04-18T06:07:59.311Z,99148.03
2023-04-18T06:10:26.836Z,99150.97
2023-04-18T06:12:53.923Z,99147.37
2023-04-18T06:15:21.076Z,99151.62
2023-04-18T06:17:48.541Z,99153.78
2023-04-18T06:20:15.786Z,99156.97
2023-04-18T06:22:42.899Z,99156.94
2023-04-18T06:25:10.388Z,99150.81
2023-04-18T06:27:38.585Z,99159.44
2023-04-18T06:30:07.726Z,99155.56
2023-04-18T06:32:35.436Z,99149.94
2023-04-18T06:35:02.796Z,99156.31
2023-04-18T06:37:29.972Z,99155.19
2023-04-18T06:39:57.345Z,99157.72
2023-04-18T06:42:24.499Z,99157.41
2023-04-18T06:44:51.549Z,99156.34
2023-04-18T06:47:19.168Z,99162.72
2023-04-18T06:49:46.374Z,99162.72
2023-04-18T06:52:13.564Z,99155.91
2023-04-18T06:54:40.991Z,99161.50
2023-04-18T06:57:08.144Z,99163.50
2023-04-18T06:59:35.809Z,99164.06
2023-04-18T07:02:03.367Z,99166.06
2023-04-18T07:04:30.670Z,99167.97
2023-04-18T07:06:57.850Z,99168.69
2023-04-18T07:09:25.344Z,99176.63
2023-04-18T07:11:52.962Z,99183.19
2023-04-18T07:14:24.494Z,99171.91
2023-04-18T07:16:52.244Z,99173.53
2023-04-18T07:19:19.508Z,99173.22
2023-04-18T07:21:46.875Z,99172.13
2023-04-18T07:24:14.604Z,99176.50
2023-04-18T07:26:41.994Z,99172.88
2023-04-18T07:29:09.096Z,99191.28
2023-04-18T07:31:36.643Z,99181.47
2023-04-18T07:34:03.812Z,99194.63
2023-04-18T07:36:31.359Z,99179.34
2023-04-18T07:38:58.713Z,99187.34
2023-04-18T07:41:25.766Z,99192.44
2023-04-18T07:43:52.754Z,99191.50
2023-04-18T07:46:20.164Z,99204.44
2023-04-18T07:48:47.305Z,99196.91
2023-04-18T07:51:14.376Z,99196.69
2023-04-18T07:53:43.388Z,99200.00
2023-04-18T07:56:12.556Z,99196.88
2023-04-18T07:58:39.591Z,99199.19
2023-04-18T08:01:07.802Z,99207.81
2023-04-18T08:03:36.429Z,99200.63
2023-04-18T08:06:03.860Z,99215.94
2023-04-18T08:08:31.004Z,99210.50
2023-04-18T08:10:58.449Z,99209.97
2023-04-18T08:13:25.519Z,99207.00
2023-04-18T08:15:52.753Z,99205.66
2023-04-18T08:18:20.197Z,99210.53
2023-04-18T08:20:47.270Z,99206.44
2023-04-18T08:23:15.193Z,99210.94
2023-04-18T08:25:42.880Z,99211.53
2023-04-18T08:28:10.006Z,99211.75
2023-04-18T08:30:37.198Z,99212.25
2023-04-18T08:33:04.647Z,99208.31
2023-04-18T08:35:31.772Z,99216.91
2023-04-18T08:37:58.833Z,99218.47
2023-04-18T08:40:26.170Z,99215.69
2023-04-18T08:42:54.082Z,99227.19
2023-04-18T08:45:21.304Z,99216.06
2023-04-18T08:47:48.656Z,99221.22
2023-04-18T08:50:17.286Z,99216.97
2023-04-18T08:52:48.850Z,99219.38
2023-04-18T08:55:16.506Z,99210.59
2023-04-18T08:57:44.743Z,99215.63
2023-04-18T09:00:12.397Z,99215.81
2023-04-18T09:02:45.122Z,99220.69
2023-04-18T09:05:19.022Z,99227.69
2023-04-18T09:07:47.767Z,99219.94
2023-04-18T09:10:32.893Z,99222.94
2023-04-18T09:13:03.153Z,99221.34
2023-04-18T09:15:30.949Z,99216.22
2023-04-18T09:18:00.437Z,99220.19
2023-04-18T09:20:35.937Z,99224.88
2023-04-18T09:23:16.299Z,99220.31
2023-04-18T09:25:48.624Z,99215.47
2023-04-18T09:28:27.988Z,99217.75
2023-04-18T09:30:57.460Z,99224.25
2023-04-18T09:33:32.964Z,99229.31
2023-04-18T09:36:22.638Z,99223.97
2023-04-18T09:38:53.698Z,99220.72
2023-04-18T09:41:23.270Z,99217.75
2023-04-18T09:43:50.640Z,99219.12
2023-04-18T09:46:17.976Z,99212.88
2023-04-18T09:48:45.653Z,99217.81
2023-04-18T09:51:16.637Z,99218.31
2023-04-18T09:53:45.193Z,99222.25
2023-04-18T09:56:23.857Z,99214.66
2023-04-18T09:58:56.479Z,99237.31
2023-04-18T10:01:28.350Z,99219.94
2023-04-18T10:03:57.387Z,99228.53
2023-04-18T10:06:27.376Z,99230.87
2023-04-18T10:08:55.359Z,99219.84
2023-04-18T10:11:24.305Z,99217.47
2023-04-18T10:13:55.923Z,99224.94
2023-04-18T10:16:24.028Z,99223.28
2023-04-18T10:18:51.661Z,99219.47
2023-04-18T10:21:18.721Z,99223.56
2023-04-18T10:23:48.881Z,99222.63
2023-04-18T10:26:16.295Z,99217.31
2023-04-18T10:28:53.482Z,99215.09
2023-04-18T10:31:22.948Z,99213.72
2023-04-18T10:34:04.020Z,99215.06
2023-04-18T10:36:33.464Z,99215.13
2023-04-18T10:39:20.984Z,99213.78
2023-04-18T10:41:50.722Z,99221.28
2023-04-18T10:44:18.505Z,99220.62
2023-04-18T10:46:48.612Z,99223.50
2023-04-18T10:49:17.088Z,99213.88
2023-04-18T10:51:49.528Z,99212.16
2023-04-18T10:54:32.826Z,99208.75
2023-04-18T10:57:01.878Z,99215.91
2023-04-18T10:59:31.300Z,99210.91
2023-04-18T11:01:58.252Z,99208.13
2023-04-18T11:04:25.840Z,99205.16
2023-04-18T11:06:58.379Z,99204.78
2023-04-18T11:09:26.050Z,99207.91
2023-04-18T11:12:08.910Z,99208.44
2023-04-18T11:14:42.945Z,99202.00
2023-04-18T11:17:20.645Z,99198.03
2023-04-18T11:19:48.314Z,99199.41
2023-04-18T11:22:16.232Z,99200.78
2023-04-18T11:24:43.925Z,99203.31
2023-04-18T11:27:12.669Z,99220.00
2023-04-18T11:29:39.951Z,99208.16
2023-04-18T11:32:10.221Z,99208.87
2023-04-18T11:34:37.333Z,99208.84
2023-04-18T11:37:08.277Z,99211.53
2023-04-18T11:39:43.222Z,99209.53
2023-04-18T11:42:10.704Z,99212.78
2023-04-18T11:44:39.958Z,99206.25
2023-04-18T11:47:29.023Z,99212.44
2023-04-18T11:50:00.580Z,99201.44
2023-04-18T11:52:29.296Z,99208.03
2023-04-18T11:54:58.287Z,99198.03
2023-04-18T11:57:30.031Z,99206.53
2023-04-18T12:00:01.158Z,99204.53
2023-04-18T12:02:38.881Z,99200.41
2023-04-18T12:05:07.091Z,99203.56
2023-04-18T12:07:42.472Z,99204.97
2023-04-18T12:10:24.482Z,99202.09
2023-04-18T12:12:53.704Z,99200.41
2023-04-18T12:15:27.267Z,99199.47
2023-04-18T12:18:00.442Z,99204.62
2023-04-18T12:20:39.590Z,99195.81
2023-04-18T12:23:06.887Z,99201.37
2023-04-18T12:25:35.269Z,99194.59
2023-04-18T12:28:13.521Z,99192.44
2023-04-18T12:30:41.851Z,99189.12
2023-04-18T12:33:11.625Z,99196.34
2023-04-18T12:35:38.626Z,99191.25
2023-04-18T12:38:06.054Z,99195.03
2023-04-18T12:40:33.282Z,99200.66
2023-04-18T12:43:02.916Z,99199.22
2023-04-18T12:45:31.090Z,99205.28
2023-04-18T12:47:58.410Z,99194.41
2023-04-18T12:50:26.585Z,99191.34
2023-04-18T12:52:55.734Z,99192.78
2023-04-18T12:55:22.945Z,99194.63
2023-04-18T12:57:52.228Z,99188.16
2023-04-18T13:00:19.525Z,99185.91
2023-04-18T13:02:46.741Z,99183.31
2023-04-18T13:05:16.099Z,99188.22
2023-04-18T13:07:44.075Z,99189.12
2023-04-18T13:10:13.126Z,99183.63
2023-04-18T13:12:42.175Z,99187.75
2023-04-18T13:15:10.077Z,99186.59
2023-04-18T13:17:38.757Z,99185.63
2023-04-18T13:20:09.054Z,99186.91
2023-04-18T13:22:37.344Z,99191.38
2023-04-18T13:25:05.782Z,99185.16
2023-04-18T13:27:32.906Z,99198.84
2023-04-18T13:30:00.368Z,99192.63
2023-04-18T13:32:27.572Z,99190.97
2023-04-18T13:34:56.105Z,99193.66
2023-04-18T13:37:24.274Z,99196.31
2023-04-18T13:39:51.429Z,99195.59
2023-04-18T13:42:19.404Z,99192.91
2023-04-18T13:44:47.659Z,99189.81
2023-04-18T13:47:14.833Z,99195.53
2023-04-18T13:49:41.960Z,99199.03
2023-04-18T13:52:09.354Z,99201.41
2023-04-18T13:54:37.613Z,99198.25
2023-04-18T13:57:06.987Z,99206.75
2023-04-18T13:59:34.335Z,99196.41
2023-04-18T14:02:01.577Z,99191.50
2023-04-18T14:04:29.560Z,99185.19
2023-04-18T14:06:56.869Z,99179.06
2023-04-18T14:09:24.066Z,99182.34
2023-04-18T14:11:51.654Z,99183.34
2023-04-18T14:14:18.876Z,99176.88
2023-04-18T14:16:46.167Z,99182.38
2023-04-18T14:19:13.926Z,99174.47
2023-04-18T14:21:41.265Z,99171.81
2023-04-18T14:24:08.569Z,99166.19
2023-04-18T14:26:36.038Z,99174.78
2023-04-18T14:29:05.075Z,99177.31
2023-04-18T14:31:32.276Z,99172.53
2023-04-18T14:33:59.782Z,99183.06
2023-04-18T14:36:27.211Z,99179.44
2023-04-18T14:38:55.155Z,99178.16
2023-04-18T14:41:22.642Z,99179.41
2023-04-18T14:43:49.765Z,99179.97
2023-04-18T14:46:17.087Z,99184.87
2023-04-18T14:48:46.395Z,99190.78
2023-04-18T14:51:15.787Z,99182.62
2023-04-18T14:53:43.300Z,99181.06
2023-04-18T14:56:10.758Z,99185.84
2023-04-18T14:58:37.881Z,99172.66
2023-04-18T15:01:05.599Z,99183.66
2023-04-18T15:03:33.395Z,99197.59
2023-04-18T15:06:00.732Z,99189.53
2023-04-18T15:08:27.961Z,99186.88
2023-04-18T15:10:55.358Z,99181.81
2023-04-18T15:13:22.614Z,99178.09
2023-04-18T15:15:53.466Z,99177.97
2023-04-18T15:18:21.247Z,99178.50
2023-04-18T15:20:48.453Z,99182.41
2023-04-18T15:23:16.008Z,99183.81
2023-04-18T15:25:45.202Z,99172.63
2023-04-18T15:28:13.679Z,99174.41
2023-04-18T15:30:40.884Z,99174.41
2023-04-18T15:33:08.629Z,99174.72
2023-04-18T15:35:36.076Z,99176.25
2023-04-18T15:38:03.241Z,99173.59
2023-04-18T15:40:32.912Z,99184.72
2023-04-18T15:43:00.196Z,99177.53
2023-04-18T15:45:27.225Z,99182.00
2023-04-18T15:47:54.646Z,99182.00
2023-04-18T15:50:23.724Z,99191.00
2023-04-18T15:52:50.726Z,99185.22
2023-04-18T15:55:18.038Z,99190.97
2023-04-18T15:57:45.103Z,99189.19
2023-04-18T16:00:16.121Z,99188.62
2023-04-18T16:02:44.923Z,99188.50
2023-04-18T16:05:12.822Z,99197.84
2023-04-18T16:07:40.513Z,99202.13
2023-04-18T16:10:10.311Z,99202.13
2023-04-18T16:12:39.016Z,99192.16
2023-04-18T16:15:08.439Z,99202.34
2023-04-18T16:17:37.484Z,99204.38
2023-04-18T16:20:06.285Z,99208.41
2023-04-18T16:22:33.612Z,99203.47
2023-04-18T16:25:01.038Z,99214.75
2023-04-18T16:27:28.496Z,99210.03
2023-04-18T16:29:55.816Z,99215.09
2023-04-18T16:32:23.291Z,99212.62
2023-04-18T16:34:50.627Z,99201.72
2023-04-18T16:37:17.683Z,99211.22
2023-04-18T16:39:45.126Z,99214.00
2023-04-18T16:42:14.830Z,99210.22
2023-04-18T16:44:43.983Z,99212.91
2023-04-18T16:47:11.375Z,99206.63
2023-04-18T16:49:38.936Z,99214.03
2023-04-18T16:52:06.136Z,99224.03
2023-04-18T16:54:33.594Z,99213.72
2023-04-18T16:57:02.118Z,99214.84
2023-04-18T16:59:29.127Z,99217.22
2023-04-18T17:01:56.531Z,99217.81
2023-04-18T17:04:26.772Z,99221.25
2023-04-18T17:06:54.140Z,99223.53
2023-04-18T17:09:21.649Z,99215.28
2023-04-18T17:11:49.362Z,99223.50
2023-04-18T17:14:17.452Z,99223.00
2023-04-18T17:16:44.999Z,99217.66
2023-04-18T17:19:12.328Z,99217.41
2023-04-18T17:21:39.536Z,99215.09
2023-04-18T17:24:07.350Z,99218.81
2023-04-18T17:26:35.796Z,99220.69
2023-04-18T17:29:04.197Z,99221.16
2023-04-18T17:31:32.322Z,99224.94
2023-04-18T17:34:00.670Z,99228.34
2023-04-18T17:36:27.814Z,99222.09
2023-04-18T17:38:55.832Z,99237.56
2023-04-18T17:41:23.236Z,99228.78
2023-04-18T17:43:53.388Z,99240.31
2023-04-18T17:46:20.976Z,99236.50
2023-04-18T17:48:48.300Z,99245.66
2023-04-18T17:51:19.330Z,99250.25
2023-04-18T17:53:46.824Z,99247.47
2023-04-18T17:56:13.882Z,99247.81
2023-04-18T17:58:41.234Z,99251.84
2023-04-18T18:01:19.662Z,99256.00
2023-04-18T18:03:48.312Z,99254.19
2023-04-18T18:06:15.653Z,99255.69
2023-04-18T18:08:43.515Z,99261.00
2023-04-18T18:11:11.093Z,99258.56
2023-04-18T18:13:41.274Z,99266.31
2023-04-18T18:16:09.009Z,99267.00
2023-04-18T18:18:37.280Z,99263.78
2023-04-18T18:21:04.640Z,99268.47
2023-04-18T18:23:31.918Z,99272.38
2023-04-18T18:25:59.408Z,99271.88
2023-04-18T18:28:26.538Z,99275.03
2023-04-18T18:30:54.003Z,99278.72
2023-04-18T18:33:21.344Z,99274.44
2023-04-18T18:35:48.401Z,99282.63
2023-04-18T18:38:15.457Z,99276.22
2023-04-18T18:40:42.807Z,99270.81
2023-04-18T18:43:09.813Z,99280.84
2023-04-18T18:45:38.370Z,99270.97
2023-04-18T18:48:07.374Z,99283.78
2023-04-18T18:50:36.399Z,99276.75
2023-04-18T18:53:06.212Z,99281.53
2023-04-18T18:55:33.657Z,99282.47
2023-04-18T18:58:00.794Z,99281.91
2023-04-18T19:00:27.977Z,99284.81
2023-04-18T19:02:55.460Z,99279.25
2023-04-18T19:05:22.633Z,99274.47
2023-04-18T19:07:51.404Z,99278.25
2023-04-18T19:10:18.735Z,99276.87
2023-04-18T19:12:45.841Z,99283.84
2023-04-18T19:15:12.979Z,99284.69
2023-04-18T19:17:40.365Z,99283.00
2023-04-18T19:20:08.949Z,99290.44
2023-04-18T19:22:36.151Z,99288.38
2023-04-18T19:25:03.653Z,99292.19
2023-04-18T19:27:30.676Z,99289.59
2023-04-18T19:29:57.674Z,99291.81
2023-04-18T19:32:25.084Z,99301.38
2023-04-18T19:34:52.092Z,99303.88
2023-04-18T19:37:19.152Z,99303.44
2023-04-18T19:39:46.477Z,99315.16
2023-04-18T19:42:13.598Z,99318.06
2023-04-18T19:44:40.691Z,99325.09
2023-04-18T19:47:08.099Z,99331.44
2023-04-18T19:49:35.214Z,99339.13
2023-04-18T19:52:02.228Z,99343.06
2023-04-18T19:54:33.354Z,99339.63
2023-04-18T19:57:01.223Z,99337.31
2023-04-18T19:59:28.422Z,99341.66
2023-04-18T20:01:56.734Z,99330.91
2023-04-18T20:04:26.005Z,99341.25
2023-04-18T20:06:54.036Z,99333.94
2023-04-18T20:09:21.138Z,99342.28
2023-04-18T20:11:49.008Z,99336.53
2023-04-18T20:14:16.062Z,99340.03
2023-04-18T20:16:43.095Z,99339.84
2023-04-18T20:19:12.658Z,99341.34
2023-04-18T20:21:40.301Z,99334.09
2023-04-18T20:24:09.697Z,99344.87
2023-04-18T20:26:37.165Z,99334.28
2023-04-18T20:29:04.384Z,99346.37
2023-04-18T20:31:31.383Z,99345.41
2023-04-18T20:33:59.100Z,99345.84
2023-04-18T20:36:26.221Z,99347.13
2023-04-18T20:38:53.253Z,99349.06
2023-04-18T20:41:24.227Z,99345.53
2023-04-18T20:43:53.726Z,99336.63
2023-04-18T20:46:21.066Z,99330.56
2023-04-18T20:48:48.155Z,99339.03
2023-04-18T20:51:15.841Z,99335.34
2023-04-18T20:53:43.154Z,99329.47
2023-04-18T20:56:10.182Z,99335.53
2023-04-18T20:58:37.174Z,99341.28
2023-04-18T21:01:04.538Z,99340.00
2023-04-18T21:03:31.654Z,99335.22
2023-04-18T21:05:58.724Z,99340.53
2023-04-18T21:08:26.043Z,99336.59
2023-04-18T21:10:53.119Z,99336.69
2023-04-18T21:13:20.142Z,99330.47
2023-04-18T21:15:49.321Z,99340.81
2023-04-18T21:18:16.335Z,99341.78
2023-04-18T21:20:43.370Z,99344.63
2023-04-18T21:23:10.776Z,99340.78
2023-04-18T21:25:37.766Z,99339.56
2023-04-18T21:28:05.360Z,99336.34
2023-04-18T21:30:32.665Z,99333.97
2023-04-18T21:32:59.696Z,99337.91
2023-04-18T21:35:26.782Z,99342.41
2023-04-18T21:37:54.144Z,99332.59
2023-04-18T21:40:21.258Z,99337.13
2023-04-18T21:42:50.973Z,99333.19
2023-04-18T21:45:18.419Z,99326.38
2023-04-18T21:47:45.598Z,99329.50
2023-04-18T21:50:12.654Z,99323.09
2023-04-18T21:52:40.000Z,99323.75
2023-04-18T21:55:07.286Z,99321.56
2023-04-18T21:57:34.333Z,99326.06
2023-04-18T22:00:01.759Z,99321.06
2023-04-18T22:02:35.888Z,99320.94
2023-04-18T22:05:03.444Z,99319.72
2023-04-18T22:07:31.089Z,99314.91
2023-04-18T22:09:59.762Z,99321.75
2023-04-18T22:12:27.206Z,99319.38
2023-04-18T22:14:54.685Z,99315.75
2023-04-18T22:17:21.951Z,99317.22
2023-04-18T22:19:50.463Z,99321.75
2023-04-18T22:22:17.557Z,99315.13
2023-04-18T22:24:47.392Z,99313.50
2023-04-18T22:27:15.320Z,99308.47
2023-04-18T22:29:42.406Z,99313.47
2023-04-18T22:32:09.525Z,99308.37
2023-04-18T22:34:36.897Z,99304.97
2023-04-18T22:37:04.009Z,99309.69
2023-04-18T22:39:31.224Z,99301.00
2023-04-18T22:41:58.689Z,99303.84
2023-04-18T22:44:25.768Z,99302.97
2023-04-18T22:46:54.744Z,99302.97
2023-04-18T22:49:22.336Z,99302.41
2023-04-18T22:51:49.662Z,99294.38
2023-04-18T22:54:16.872Z,99295.97
2023-04-18T22:56:44.342Z,99293.34
2023-04-18T22:59:11.630Z,99302.13
2023-04-18T23:01:38.823Z,99294.00
2023-04-18T23:04:07.116Z,99284.56
2023-04-18T23:06:36.692Z,99288.41
2023-04-18T23:09:06.566Z,99283.78
2023-04-18T23:11:34.029Z,99279.16
2023-04-18T23:14:01.270Z,99276.50
2023-04-18T23:16:28.929Z,99273.78
2023-04-18T23:18:56.351Z,99273.78
2023-04-18T23:21:23.501Z,99274.84
2023-04-18T23:23:50.612Z,99270.84
2023-04-18T23:26:18.149Z,99262.34
2023-04-18T23:28:45.427Z,99266.31
2023-04-18T23:31:12.719Z,99252.91
2023-04-18T23:33:40.261Z,99259.31
2023-04-18T23:36:07.874Z,99257.69
2023-04-18T23:38:37.203Z,99251.88
2023-04-18T23:41:04.636Z,99245.03
2023-04-18T23:43:32.063Z,99244.66
2023-04-18T23:45:59.187Z,99243.62
2023-04-18T23:48:26.564Z,99239.94
2023-04-18T23:50:53.741Z,99234.53
2023-04-18T23:53:22.620Z,99234.56
2023-04-18T23:55:51.114Z,99229.50
2023-04-18T23:58:18.388Z,99233.13
